WITTWIMM

Guest
Details From WITT - Banda Aceh Sultan Iskandarmuda
To WIMM - Medan/Polonia
Flight Number -
Tags generated
Created
Modified
Stats Distance 228 nm / 422 km
Max Altitude 23,500 ft / 7,163 m
Waypoints 4
Social Downloads 0
Likes 0
Share VATSIM

Download

Looking for another format? Having issues loading an existing format? Contact us
Advertisement - Login to hide

Notes

Basic altitude profile: - Ascent Rate: 2500ft/min - Ascent Speed: 250kts - Cruise Altitude: 35000ft - Cruise Speed: 420kts - Descent Rate: 1500ft/min - Descent Speed: 250kts Options: - Use NATs: yes - Use PACOTS: yes - Use low airways: no - Use high airways: yes

Route

WITT BAC W12 JILAT WIMM

ID Type Via Altitude Latitude Longitude Leg Dist Tot Dist Heading (true) Name
O WITT APT - 0 ft / 0 m 5.52352˚ 95.42037˚ - 0 nm - Banda Aceh Sultan Iskandarmuda
BAC VOR - 0 ft / 0 m 5.52263˚ 95.42222˚ 0 nm 0 nm 116° / 116° BANDA ACEH VOR-DME
JILAT FIX W12 (AWY-HI) 23,500 ft / 7,163 m 4.40880˚ 97.18962˚ 125 nm 125 nm 122° / 122° -
O WIMM APT - 0 ft / 0 m 3.55806˚ 98.67172˚ 102 nm 227 nm 120° / 120° Medan/Polonia

Altitude Profile

Advertisement - Login to hide

Weather


0- 5 10 15 20 25 30 35+ Temperature / ° C

Clouds and Precipitation
Forecast for 2017-12-12 06:00 UTC. Updated 2 hours ago

Ground ~20,000 ft ~40,000 ft Winds

WITT

Details ICAO WITT (BTJ)
Name Banda Aceh Sultan Iskandarmuda
Region Indonesia
Timezone Asia/Jakarta (UTC+7.0)
Stats Elevation 65 ft / 20 m (AMSL)
Location 5.523523° 95.420372°
Runways 1
Magnetic Variation 0.697° W

METAR

Not found

TAF

TAF WITT 112330Z 1200/1224 15005KT 9999 FEW018 BECMG 1203/1205 05010KT SCT018 BECMG 1212/1214 14005KT

Decode

Departure Runways

ID Width Length Bearing (true) Bearing (mag) Surface Threshold Offset Overrun Length
17 148 ft / 45 m 8,229 ft / 2,508 m 168.37° 169.07° Asphalt 0 ft / 0 m 210 ft / 64 m
35 148 ft / 45 m 8,229 ft / 2,508 m 348.37° 349.07° Asphalt 0 ft / 0 m 220 ft / 67 m

WIMM

Details ICAO WIMM (MES)
Name Medan/Polonia
Region Indonesia
Timezone Asia/Jakarta (UTC+7.0)
Stats Elevation 90 ft / 27 m (AMSL)
Location 3.558057° 98.671716°
Runways 1
Magnetic Variation 0.321° W

METAR

WIMM 120230Z 26008KT 6000 FEW018 28/24 Q1014

Decode

TAF

TAF TAF WIMM 112300Z 1200/1224 24004KT 9999R SCT017 BECMG 1202/1204 33010KT BECMG 1211/1213 VRB05KT 4000 HZ FEW016CB SCT017

Decode

Destination Runways

ID Width Length Bearing (true) Bearing (mag) Surface Threshold Offset Overrun Length
05 148 ft / 45 m 9,531 ft / 2,905 m 46.55° 46.87° Asphalt 910 ft / 277 m 197 ft / 60 m
23 148 ft / 45 m 9,531 ft / 2,905 m 226.55° 226.87° Asphalt 0 ft / 0 m 325 ft / 99 m

Approach Navaids

Runway Type Ident Frequency Range Bearing (true) Bearing (mag) Slope Elevation
05 Localiser IMDN 110.10 MHz 18 nm / 33 km 47.68° 48.00° - 90 ft / 27 m (AMSL)
05 Glidescope IMDN 110.10 MHz 10 nm / 19 km 46.55° 46.87° 3.00° 90 ft / 27 m (AMSL)

Popular Alternatives